createdAt,value
2022-09-04T00:01:28.692Z,20.31
2022-09-04T00:04:01.823Z,20.31
2022-09-04T00:06:38.402Z,20.16
2022-09-04T00:09:13.924Z,20.10
2022-09-04T00:11:50.251Z,20.09
2022-09-04T00:14:21.817Z,20.18
2022-09-04T00:16:57.499Z,20.23
2022-09-04T00:19:34.174Z,20.10
2022-09-04T00:22:07.223Z,20.15
2022-09-04T00:24:38.878Z,20.07
2022-09-04T00:27:13.350Z,19.96
2022-09-04T00:29:49.086Z,19.93
2022-09-04T00:32:24.923Z,20.24
2022-09-04T00:35:06.157Z,19.97
2022-09-04T00:37:38.603Z,20.21
2022-09-04T00:40:10.325Z,20.09
2022-09-04T00:43:06.671Z,20.06
2022-09-04T00:45:48.025Z,19.98
2022-09-04T00:48:28.531Z,20.08
2022-09-04T00:51:21.669Z,19.95
2022-09-04T00:54:27.165Z,20.05
2022-09-04T00:57:42.169Z,20.07
2022-09-04T01:00:15.457Z,20.03
2022-09-04T01:03:02.416Z,19.96
2022-09-04T01:05:41.052Z,20.03
2022-09-04T01:08:20.562Z,20.28
2022-09-04T01:10:58.987Z,20.06
2022-09-04T01:13:34.136Z,20.00
2022-09-04T01:16:11.250Z,20.05
2022-09-04T01:18:46.009Z,20.07
2022-09-04T01:21:57.750Z,20.10
2022-09-04T01:24:43.958Z,20.19
2022-09-04T01:27:17.134Z,20.08
2022-09-04T01:29:54.512Z,20.31
2022-09-04T01:32:32.825Z,20.10
2022-09-04T01:35:10.219Z,20.04
2022-09-04T01:37:47.612Z,20.34
2022-09-04T01:40:35.143Z,20.26
2022-09-04T01:43:08.596Z,20.25
2022-09-04T01:46:10.229Z,20.06
2022-09-04T01:48:45.213Z,20.19
2022-09-04T01:51:21.869Z,20.25
2022-09-04T01:53:59.803Z,20.35
2022-09-04T01:56:36.292Z,20.40
2022-09-04T01:59:12.866Z,20.20
2022-09-04T02:01:48.255Z,20.31
2022-09-04T02:04:23.183Z,20.12
2022-09-04T02:06:58.974Z,19.85
2022-09-04T02:09:36.310Z,19.88
2022-09-04T02:12:12.140Z,20.02
2022-09-04T02:14:54.439Z,19.93
2022-09-04T02:17:32.706Z,20.03
2022-09-04T02:20:11.153Z,19.92
2022-09-04T02:22:45.245Z,19.93
2022-09-04T02:25:22.306Z,19.86
2022-09-04T02:27:59.370Z,19.87
2022-09-04T02:30:32.204Z,19.75
2022-09-04T02:33:06.254Z,19.93
2022-09-04T02:35:40.211Z,19.57
2022-09-04T02:38:18.399Z,19.61
2022-09-04T02:40:52.216Z,19.83
2022-09-04T02:43:35.798Z,19.90
2022-09-04T02:46:11.471Z,19.89
2022-09-04T02:48:53.070Z,20.00
2022-09-04T02:51:30.045Z,19.81
2022-09-04T02:54:04.041Z,19.75
2022-09-04T02:56:43.822Z,19.75
2022-09-04T02:59:28.737Z,19.73
2022-09-04T03:02:00.666Z,19.76
2022-09-04T03:04:36.948Z,19.93
2022-09-04T03:07:10.959Z,19.71
2022-09-04T03:09:44.507Z,19.70
2022-09-04T03:12:27.229Z,19.75
2022-09-04T03:15:03.341Z,19.70
2022-09-04T03:17:38.269Z,19.79
2022-09-04T03:20:13.271Z,19.73
2022-09-04T03:22:46.336Z,19.82
2022-09-04T03:25:53.951Z,19.69
2022-09-04T03:28:29.350Z,19.95
2022-09-04T03:30:59.891Z,19.71
2022-09-04T03:33:35.655Z,19.65
2022-09-04T03:36:08.600Z,19.73
2022-09-04T03:38:45.424Z,19.61
2022-09-04T03:41:30.268Z,19.81
2022-09-04T03:44:07.800Z,19.93
2022-09-04T03:46:49.271Z,19.64
2022-09-04T03:49:25.243Z,19.71
2022-09-04T03:52:01.458Z,19.70
2022-09-04T03:54:43.870Z,19.76
2022-09-04T03:57:34.798Z,19.64
2022-09-04T04:00:11.484Z,19.76
2022-09-04T04:02:59.096Z,19.89
2022-09-04T04:05:57.870Z,19.60
2022-09-04T04:08:56.599Z,19.71
2022-09-04T04:11:43.704Z,19.70
2022-09-04T04:14:36.024Z,19.39
2022-09-04T04:17:17.567Z,19.36
2022-09-04T04:20:04.110Z,19.35
2022-09-04T04:22:56.255Z,19.31
2022-09-04T04:25:52.633Z,19.22
2022-09-04T04:28:36.840Z,19.21
2022-09-04T04:31:14.528Z,19.42
2022-09-04T04:33:51.474Z,19.21
2022-09-04T04:36:29.242Z,19.10
2022-09-04T04:39:09.920Z,19.14
2022-09-04T04:42:06.681Z,18.96
2022-09-04T04:45:12.399Z,19.29
2022-09-04T04:48:24.932Z,19.08
2022-09-04T04:51:05.430Z,19.31
2022-09-04T04:53:37.611Z,19.21
2022-09-04T04:56:15.406Z,19.21
2022-09-04T04:58:54.909Z,19.27
2022-09-04T05:01:37.222Z,18.99
2022-09-04T05:04:12.664Z,19.07
2022-09-04T05:06:46.276Z,19.06
2022-09-04T05:09:21.965Z,18.89
2022-09-04T05:11:58.016Z,18.71
2022-09-04T05:14:36.879Z,18.94
2022-09-04T05:17:17.347Z,18.99
2022-09-04T05:19:50.926Z,18.82
2022-09-04T05:22:25.673Z,18.87
2022-09-04T05:25:01.551Z,18.92
2022-09-04T05:27:43.206Z,18.90
2022-09-04T05:30:15.900Z,19.04
2022-09-04T05:32:53.195Z,19.21
2022-09-04T05:35:31.906Z,19.18
2022-09-04T05:38:10.014Z,19.11
2022-09-04T05:40:52.021Z,19.09
2022-09-04T05:43:32.372Z,19.12
2022-09-04T05:46:06.598Z,19.29
2022-09-04T05:48:43.832Z,19.35
2022-09-04T05:51:40.417Z,19.36
2022-09-04T05:54:38.432Z,19.40
2022-09-04T05:57:19.166Z,19.53
2022-09-04T06:00:11.189Z,19.58
2022-09-04T06:03:12.143Z,19.68
2022-09-04T06:05:46.257Z,19.84
2022-09-04T06:08:28.671Z,19.90
2022-09-04T06:11:05.229Z,19.97
2022-09-04T06:13:46.867Z,19.99
2022-09-04T06:16:34.548Z,19.96
2022-09-04T06:19:32.804Z,19.90
2022-09-04T06:22:33.613Z,19.86
2022-09-04T06:25:39.004Z,19.91
2022-09-04T06:28:28.259Z,19.92
2022-09-04T06:31:01.724Z,19.96
2022-09-04T06:33:57.068Z,20.06
2022-09-04T06:36:52.725Z,20.18
2022-09-04T06:40:01.053Z,20.16
2022-09-04T06:42:37.230Z,20.16
2022-09-04T06:45:17.236Z,20.26
2022-09-04T06:47:56.968Z,20.00
2022-09-04T06:50:32.955Z,20.28
2022-09-04T06:53:09.647Z,20.34
2022-09-04T06:55:44.637Z,20.15
2022-09-04T06:58:43.222Z,20.28
2022-09-04T07:01:16.641Z,20.24
2022-09-04T07:03:58.063Z,20.26
2022-09-04T07:06:44.376Z,20.32
2022-09-04T07:09:17.924Z,20.35
2022-09-04T07:12:04.235Z,20.30
2022-09-04T07:14:45.332Z,20.48
2022-09-04T07:17:20.442Z,20.44
2022-09-04T07:20:21.097Z,20.36
2022-09-04T07:23:23.494Z,20.41
2022-09-04T07:26:10.956Z,20.31
2022-09-04T07:29:25.773Z,20.33
2022-09-04T07:32:01.454Z,20.60
2022-09-04T07:34:39.517Z,20.63
2022-09-04T07:37:15.757Z,20.73
2022-09-04T07:39:50.264Z,20.72
2022-09-04T07:42:28.053Z,20.72
2022-09-04T07:45:04.745Z,20.90
2022-09-04T07:47:36.169Z,20.66
2022-09-04T07:50:11.309Z,20.71
2022-09-04T07:52:50.882Z,20.87
2022-09-04T07:55:28.617Z,20.90
2022-09-04T07:58:38.830Z,21.11
2022-09-04T08:01:27.323Z,21.17
2022-09-04T08:04:12.544Z,21.33
2022-09-04T08:06:50.405Z,21.35
2022-09-04T08:09:46.933Z,21.31
2022-09-04T08:12:45.481Z,21.53
2022-09-04T08:15:35.475Z,21.41
2022-09-04T08:18:21.810Z,21.45
2022-09-04T08:20:56.936Z,21.45
2022-09-04T08:23:47.562Z,21.34
2022-09-04T08:26:21.498Z,21.40
2022-09-04T08:29:15.798Z,21.55
2022-09-04T08:31:55.595Z,21.50
2022-09-04T08:35:04.089Z,21.61
2022-09-04T08:37:38.721Z,21.87
2022-09-04T08:40:27.395Z,21.80
2022-09-04T08:43:20.488Z,21.81
2022-09-04T08:46:25.862Z,22.02
2022-09-04T08:49:14.266Z,21.93
2022-09-04T08:52:27.209Z,21.55
2022-09-04T08:55:35.710Z,21.52
2022-09-04T08:58:22.986Z,21.60
2022-09-04T09:01:11.043Z,21.50
2022-09-04T09:03:57.973Z,21.75
2022-09-04T09:07:04.059Z,21.73
2022-09-04T09:09:52.512Z,22.23
2022-09-04T09:12:51.369Z,22.40
2022-09-04T09:15:41.512Z,22.55
2022-09-04T09:18:35.827Z,22.60
2022-09-04T09:21:09.625Z,22.88
2022-09-04T09:24:08.512Z,23.11
2022-09-04T09:26:53.081Z,22.91
2022-09-04T09:29:41.886Z,23.25
2022-09-04T09:32:46.658Z,23.04
2022-09-04T09:35:56.094Z,23.07
2022-09-04T09:38:44.803Z,22.85
2022-09-04T09:41:38.916Z,22.88
2022-09-04T09:45:06.315Z,22.80
2022-09-04T09:47:50.091Z,23.01
2022-09-04T09:50:55.813Z,22.95
2022-09-04T09:53:46.324Z,22.98
2022-09-04T09:56:53.730Z,23.05
2022-09-04T09:59:50.993Z,23.08
2022-09-04T10:03:08.474Z,23.25
2022-09-04T10:06:13.380Z,23.28
2022-09-04T10:09:22.700Z,23.24
2022-09-04T10:12:28.387Z,23.51
2022-09-04T10:15:18.307Z,23.06
2022-09-04T10:18:06.810Z,23.43
2022-09-04T10:21:13.024Z,23.71
2022-09-04T10:24:11.585Z,23.80
2022-09-04T10:26:53.409Z,23.84
2022-09-04T10:29:36.835Z,23.56
2022-09-04T10:32:54.523Z,23.81
2022-09-04T10:35:25.490Z,23.75
2022-09-04T10:38:12.589Z,23.74
2022-09-04T10:40:54.460Z,23.75
2022-09-04T10:43:48.536Z,23.46
2022-09-04T10:46:26.392Z,23.62
2022-09-04T10:49:30.796Z,23.78
2022-09-04T10:52:17.335Z,23.87
2022-09-04T10:55:04.742Z,24.15
2022-09-04T10:58:01.670Z,24.17
2022-09-04T11:00:37.334Z,23.95
2022-09-04T11:03:38.264Z,23.99
2022-09-04T11:06:36.173Z,23.92
2022-09-04T11:09:24.482Z,24.13
2022-09-04T11:12:14.312Z,23.96
2022-09-04T11:15:15.299Z,24.18
2022-09-04T11:18:05.366Z,23.84
2022-09-04T11:20:57.592Z,24.00
2022-09-04T11:24:14.166Z,23.83
2022-09-04T11:27:15.868Z,23.94
2022-09-04T11:29:55.963Z,24.09
2022-09-04T11:32:52.294Z,24.19
2022-09-04T11:35:50.903Z,24.09
2022-09-04T11:38:43.949Z,24.21
2022-09-04T11:42:03.921Z,24.21
2022-09-04T11:45:04.663Z,24.37
2022-09-04T11:48:20.318Z,24.22
2022-09-04T11:51:34.505Z,24.24
2022-09-04T11:54:39.270Z,24.09
2022-09-04T11:57:14.704Z,25.20
2022-09-04T12:00:07.436Z,24.77
2022-09-04T12:03:15.998Z,24.56
2022-09-04T12:06:08.368Z,24.41
2022-09-04T12:09:18.855Z,24.51
2022-09-04T12:12:22.777Z,24.22
2022-09-04T12:15:22.615Z,24.28
2022-09-04T12:18:23.598Z,24.15
2022-09-04T12:21:20.381Z,23.87
2022-09-04T12:24:31.706Z,23.57
2022-09-04T12:27:27.317Z,23.36
2022-09-04T12:30:14.014Z,23.35
2022-09-04T12:33:03.686Z,23.38
2022-09-04T12:36:19.635Z,23.23
2022-09-04T12:39:25.152Z,23.40
2022-09-04T12:41:59.818Z,23.96
2022-09-04T12:44:38.321Z,23.92
2022-09-04T12:47:16.754Z,23.92
2022-09-04T12:50:11.342Z,23.92
2022-09-04T12:52:51.108Z,23.80
2022-09-04T12:55:24.662Z,23.50
2022-09-04T12:58:07.533Z,23.67
2022-09-04T13:00:48.456Z,23.98
2022-09-04T13:03:24.422Z,24.23
2022-09-04T13:06:04.370Z,23.97
2022-09-04T13:08:47.450Z,24.19
2022-09-04T13:11:25.408Z,24.25
2022-09-04T13:14:08.780Z,24.01
2022-09-04T13:16:42.511Z,24.18
2022-09-04T13:19:16.969Z,24.52
2022-09-04T13:21:57.027Z,24.77
2022-09-04T13:24:39.943Z,25.12
2022-09-04T13:27:36.927Z,25.57
2022-09-04T13:30:08.892Z,25.90
2022-09-04T13:32:48.978Z,25.87
2022-09-04T13:35:25.205Z,25.48
2022-09-04T13:38:11.642Z,25.23
2022-09-04T13:41:00.913Z,25.10
2022-09-04T13:44:00.697Z,25.83
2022-09-04T13:46:36.461Z,25.81
2022-09-04T13:49:08.456Z,25.26
2022-09-04T13:51:39.568Z,24.78
2022-09-04T13:54:13.668Z,24.46
2022-09-04T13:56:48.066Z,24.36
2022-09-04T13:59:18.811Z,24.30
2022-09-04T14:01:52.118Z,24.37
2022-09-04T14:04:26.532Z,24.22
2022-09-04T14:07:00.088Z,24.55
2022-09-04T14:09:31.443Z,25.03
2022-09-04T14:12:21.000Z,25.30
2022-09-04T14:15:28.718Z,25.49
2022-09-04T14:18:05.850Z,25.91
2022-09-04T14:20:41.578Z,25.93
2022-09-04T14:23:20.525Z,25.78
2022-09-04T14:25:53.886Z,25.63
2022-09-04T14:28:25.190Z,26.15
2022-09-04T14:31:00.784Z,26.19
2022-09-04T14:33:40.191Z,26.37
2022-09-04T14:36:17.643Z,25.89
2022-09-04T14:39:21.628Z,26.08
2022-09-04T14:41:59.815Z,26.21
2022-09-04T14:44:42.660Z,26.27
2022-09-04T14:47:23.076Z,26.31
2022-09-04T14:49:55.777Z,26.39
2022-09-04T14:52:27.341Z,26.20
2022-09-04T14:54:58.734Z,26.56
2022-09-04T14:57:34.668Z,26.61
2022-09-04T15:00:11.700Z,26.08
2022-09-04T15:02:43.866Z,26.03
2022-09-04T15:05:22.094Z,25.78
2022-09-04T15:07:55.933Z,25.56
2022-09-04T15:10:28.905Z,25.22
2022-09-04T15:13:06.646Z,25.36
2022-09-04T15:15:38.799Z,25.35
2022-09-04T15:18:16.575Z,25.11
2022-09-04T15:20:54.086Z,24.87
2022-09-04T15:23:28.140Z,24.94
2022-09-04T15:26:06.002Z,24.83
2022-09-04T15:28:43.182Z,24.62
2022-09-04T15:31:16.894Z,24.71
2022-09-04T15:33:48.327Z,24.55
2022-09-04T15:36:21.841Z,24.60
2022-09-04T15:38:53.166Z,24.42
2022-09-04T15:41:28.399Z,24.27
2022-09-04T15:44:02.446Z,24.34
2022-09-04T15:46:40.574Z,24.30
2022-09-04T15:49:31.839Z,24.28
2022-09-04T15:52:14.211Z,24.08
2022-09-04T15:54:57.330Z,23.99
2022-09-04T15:57:30.457Z,23.89
2022-09-04T16:00:03.873Z,24.12
2022-09-04T16:02:50.434Z,23.97
2022-09-04T16:05:24.055Z,23.97
2022-09-04T16:08:03.207Z,23.92
2022-09-04T16:10:44.885Z,23.84
2022-09-04T16:13:35.081Z,23.83
2022-09-04T16:16:10.281Z,23.87
2022-09-04T16:18:52.178Z,23.65
2022-09-04T16:21:31.503Z,23.78
2022-09-04T16:24:09.186Z,23.76
2022-09-04T16:26:38.813Z,23.76
2022-09-04T16:29:10.456Z,23.69
2022-09-04T16:31:40.625Z,23.65
2022-09-04T16:34:22.183Z,23.57
2022-09-04T16:37:01.928Z,23.55
2022-09-04T16:39:43.552Z,23.55
2022-09-04T16:42:19.970Z,23.49
2022-09-04T16:44:54.868Z,23.44
2022-09-04T16:47:29.377Z,23.50
2022-09-04T16:50:01.515Z,23.61
2022-09-04T16:52:38.205Z,23.51
2022-09-04T16:55:17.383Z,23.44
2022-09-04T16:57:53.929Z,23.40
2022-09-04T17:00:24.920Z,23.32
2022-09-04T17:02:57.154Z,23.29
2022-09-04T17:05:35.175Z,23.30
2022-09-04T17:08:11.197Z,23.32
2022-09-04T17:10:46.776Z,23.31
2022-09-04T17:13:21.301Z,23.24
2022-09-04T17:16:00.332Z,23.26
2022-09-04T17:18:30.469Z,23.13
2022-09-04T17:24:04.568Z,23.16
2022-09-04T17:28:59.189Z,23.05
2022-09-04T17:29:12.872Z,22.93
2022-09-04T17:29:49.393Z,23.00
2022-09-04T17:33:46.145Z,22.86
2022-09-04T17:40:36.393Z,22.87
2022-09-04T17:40:51.771Z,22.88
2022-09-04T17:41:38.292Z,22.98
2022-09-04T17:44:26.399Z,22.89
2022-09-04T17:47:04.962Z,22.91
2022-09-04T17:49:38.263Z,22.87
2022-09-04T17:52:08.860Z,22.73
2022-09-04T17:54:40.759Z,22.78
2022-09-04T17:57:14.152Z,22.83
2022-09-04T17:59:50.683Z,22.73
2022-09-04T18:02:25.461Z,22.61
2022-09-04T18:05:00.710Z,22.62
2022-09-04T18:08:07.409Z,22.69
2022-09-04T18:10:34.027Z,22.64
2022-09-04T18:13:28.389Z,22.54
2022-09-04T18:16:12.683Z,22.49
2022-09-04T18:18:44.764Z,22.61
2022-09-04T18:21:18.029Z,22.52
2022-09-04T18:23:57.630Z,22.60
2022-09-04T18:26:41.077Z,22.40
2022-09-04T18:33:39.899Z,22.41
2022-09-04T18:37:07.099Z,22.55
2022-09-04T18:37:17.222Z,22.55
2022-09-04T18:38:19.839Z,22.34
2022-09-04T18:46:06.599Z,22.33
2022-09-04T18:50:20.883Z,22.42
2022-09-04T18:50:35.451Z,22.40
2022-09-04T18:50:51.324Z,22.41
2022-09-04T18:52:30.482Z,22.47
2022-09-04T18:55:04.081Z,22.36
2022-09-04T18:57:35.504Z,22.32
2022-09-04T19:00:10.887Z,22.33
2022-09-04T19:02:53.050Z,22.34
2022-09-04T19:05:45.118Z,22.34
2022-09-04T19:08:19.822Z,22.24
2022-09-04T19:10:54.341Z,22.26
2022-09-04T19:13:28.174Z,22.25
2022-09-04T19:16:03.416Z,22.26
2022-09-04T19:18:44.090Z,22.12
2022-09-04T19:21:38.369Z,22.11
2022-09-04T19:24:39.133Z,21.89
2022-09-04T19:27:27.020Z,22.03
2022-09-04T19:30:18.445Z,22.02
2022-09-04T19:33:09.911Z,21.97
2022-09-04T19:35:45.588Z,22.03
2022-09-04T19:43:30.461Z,21.97
2022-09-04T19:46:08.069Z,21.92
2022-09-04T19:46:17.544Z,21.97
2022-09-04T19:47:09.172Z,21.95
2022-09-04T19:53:17.941Z,21.96
2022-09-04T19:53:30.533Z,21.86
2022-09-04T19:55:49.241Z,21.88
2022-09-04T19:58:20.278Z,21.79
2022-09-04T20:00:53.107Z,21.74
2022-09-04T20:03:29.708Z,21.74
2022-09-04T20:06:20.255Z,21.75
2022-09-04T20:09:00.396Z,21.74
2022-09-04T20:11:35.684Z,21.75
2022-09-04T20:14:14.446Z,21.84
2022-09-04T20:16:50.668Z,21.64
2022-09-04T20:19:28.464Z,21.56
2022-09-04T20:22:01.903Z,21.69
2022-09-04T20:24:39.779Z,21.60
2022-09-04T20:27:16.008Z,21.64
2022-09-04T20:29:54.551Z,21.57
2022-09-04T20:32:26.828Z,21.62
2022-09-04T20:35:13.028Z,21.41
2022-09-04T20:37:45.595Z,21.24
2022-09-04T20:40:27.244Z,21.58
2022-09-04T20:43:18.055Z,21.51
2022-09-04T20:51:55.296Z,21.51
2022-09-04T20:52:58.851Z,21.45
2022-09-04T20:53:07.403Z,21.47
2022-09-04T20:54:38.876Z,21.22
2022-09-04T21:01:43.080Z,21.35
2022-09-04T21:03:11.773Z,21.34
2022-09-04T21:03:19.365Z,21.15
2022-09-04T21:05:59.999Z,21.41
2022-09-04T21:08:41.524Z,21.18
2022-09-04T21:11:41.143Z,21.16
2022-09-04T21:14:07.997Z,21.17
2022-09-04T21:16:52.540Z,21.10
2022-09-04T21:19:53.088Z,21.03
2022-09-04T21:22:33.049Z,21.18
2022-09-04T21:25:28.877Z,20.98
2022-09-04T21:28:23.204Z,21.19
2022-09-04T21:31:13.591Z,21.05
2022-09-04T21:33:51.349Z,21.03
2022-09-04T21:36:27.667Z,21.07
2022-09-04T21:39:25.904Z,20.79
2022-09-04T21:42:17.343Z,21.10
2022-09-04T21:45:14.348Z,21.03
2022-09-04T21:48:02.075Z,20.89
2022-09-04T21:50:45.515Z,20.80
2022-09-04T21:53:34.517Z,20.61
2022-09-04T21:58:41.219Z,20.78
2022-09-04T22:02:46.280Z,20.75
2022-09-04T22:02:52.570Z,20.63
2022-09-04T22:05:27.970Z,20.73
2022-09-04T22:12:25.805Z,20.71
2022-09-04T22:13:37.961Z,20.69
2022-09-04T22:14:04.191Z,20.73
2022-09-04T22:16:45.529Z,20.73
2022-09-04T22:19:29.388Z,20.65
2022-09-04T22:22:15.128Z,20.53
2022-09-04T22:25:10.415Z,20.57
2022-09-04T22:28:15.038Z,20.43
2022-09-04T22:31:01.341Z,20.59
2022-09-04T22:34:14.896Z,20.55
2022-09-04T22:37:36.736Z,20.39
2022-09-04T22:40:30.032Z,20.46
2022-09-04T22:43:11.628Z,20.57
2022-09-04T22:46:03.779Z,20.55
2022-09-04T22:49:12.531Z,20.47
2022-09-04T22:52:21.725Z,20.52
2022-09-04T22:55:39.499Z,20.42
2022-09-04T22:58:24.543Z,20.44
2022-09-04T23:01:15.986Z,20.37
2022-09-04T23:03:59.310Z,20.40
2022-09-04T23:11:46.674Z,20.17
2022-09-04T23:13:54.789Z,20.19
2022-09-04T23:14:02.710Z,20.31
2022-09-04T23:16:31.343Z,20.11
2022-09-04T23:24:41.121Z,20.19
2022-09-04T23:26:38.383Z,20.25
2022-09-04T23:26:44.141Z,20.30
2022-09-04T23:28:28.107Z,20.30
2022-09-04T23:31:10.371Z,20.26
2022-09-04T23:34:12.608Z,20.07
2022-09-04T23:37:23.493Z,20.13
2022-09-04T23:40:05.125Z,20.02
2022-09-04T23:42:46.046Z,20.07
2022-09-04T23:45:33.553Z,19.99
2022-09-04T23:48:39.377Z,20.00
2022-09-04T23:51:14.065Z,20.07
2022-09-04T23:53:49.700Z,20.05
2022-09-04T23:56:26.746Z,20.04
2022-09-04T23:59:28.949Z,20.06
